sensor_id;sensor_type;location;lat;lon;timestamp;P1;durP1;ratioP1;P2;durP2;ratioP2
15990;SDS011;8100;50.994;4.538;2022-12-11T00:01:48;16.63;;;8.10;;
15990;SDS011;8100;50.994;4.538;2022-12-11T00:04:36;16.27;;;8.13;;
15990;SDS011;8100;50.994;4.538;2022-12-11T00:07:23;15.23;;;8.23;;
15990;SDS011;8100;50.994;4.538;2022-12-11T00:10:11;13.32;;;7.97;;
15990;SDS011;8100;50.994;4.538;2022-12-11T00:12:58;12.75;;;7.93;;
15990;SDS011;8100;50.994;4.538;2022-12-11T00:15:45;13.70;;;7.57;;
15990;SDS011;8100;50.994;4.538;2022-12-11T00:18:32;16.10;;;8.25;;
15990;SDS011;8100;50.994;4.538;2022-12-11T00:21:21;16.00;;;7.53;;
15990;SDS011;8100;50.994;4.538;2022-12-11T00:24:08;14.32;;;8.15;;
15990;SDS011;8100;50.994;4.538;2022-12-11T00:26:55;13.63;;;7.80;;
15990;SDS011;8100;50.994;4.538;2022-12-11T00:29:42;16.05;;;8.80;;
15990;SDS011;8100;50.994;4.538;2022-12-11T00:32:30;13.48;;;8.25;;
15990;SDS011;8100;50.994;4.538;2022-12-11T00:35:17;13.20;;;8.52;;
15990;SDS011;8100;50.994;4.538;2022-12-11T00:38:05;14.35;;;8.20;;
15990;SDS011;8100;50.994;4.538;2022-12-11T00:40:56;15.85;;;8.25;;
15990;SDS011;8100;50.994;4.538;2022-12-11T00:43:44;17.10;;;9.15;;
15990;SDS011;8100;50.994;4.538;2022-12-11T00:46:32;14.65;;;8.13;;
15990;SDS011;8100;50.994;4.538;2022-12-11T00:49:19;15.88;;;8.77;;
15990;SDS011;8100;50.994;4.538;2022-12-11T00:52:06;14.27;;;8.40;;
15990;SDS011;8100;50.994;4.538;2022-12-11T00:54:56;13.73;;;8.30;;
15990;SDS011;8100;50.994;4.538;2022-12-11T00:57:43;16.88;;;9.10;;
15990;SDS011;8100;50.994;4.538;2022-12-11T01:00:31;15.13;;;8.20;;
15990;SDS011;8100;50.994;4.538;2022-12-11T01:03:19;15.25;;;8.60;;
15990;SDS011;8100;50.994;4.538;2022-12-11T01:06:07;16.92;;;9.27;;
15990;SDS011;8100;50.994;4.538;2022-12-11T01:08:58;17.63;;;8.85;;
15990;SDS011;8100;50.994;4.538;2022-12-11T01:12:04;15.30;;;9.10;;
15990;SDS011;8100;50.994;4.538;2022-12-11T01:14:51;18.38;;;9.27;;
15990;SDS011;8100;50.994;4.538;2022-12-11T01:17:39;16.27;;;9.48;;
15990;SDS011;8100;50.994;4.538;2022-12-11T01:20:26;17.20;;;8.95;;
15990;SDS011;8100;50.994;4.538;2022-12-11T01:23:14;16.20;;;9.35;;
15990;SDS011;8100;50.994;4.538;2022-12-11T01:26:08;16.67;;;8.98;;
15990;SDS011;8100;50.994;4.538;2022-12-11T01:28:58;17.15;;;9.40;;
15990;SDS011;8100;50.994;4.538;2022-12-11T01:31:45;15.75;;;9.07;;
15990;SDS011;8100;50.994;4.538;2022-12-11T01:34:33;16.73;;;9.40;;
15990;SDS011;8100;50.994;4.538;2022-12-11T01:37:20;15.20;;;8.98;;
15990;SDS011;8100;50.994;4.538;2022-12-11T01:40:07;16.55;;;8.93;;
15990;SDS011;8100;50.994;4.538;2022-12-11T01:42:55;14.70;;;8.77;;
15990;SDS011;8100;50.994;4.538;2022-12-11T01:45:44;16.38;;;8.93;;
15990;SDS011;8100;50.994;4.538;2022-12-11T01:48:33;15.88;;;8.75;;
15990;SDS011;8100;50.994;4.538;2022-12-11T01:51:20;16.38;;;8.98;;
15990;SDS011;8100;50.994;4.538;2022-12-11T01:54:10;14.57;;;8.48;;
15990;SDS011;8100;50.994;4.538;2022-12-11T01:57:00;16.33;;;8.60;;
15990;SDS011;8100;50.994;4.538;2022-12-11T01:59:50;16.30;;;9.10;;
15990;SDS011;8100;50.994;4.538;2022-12-11T02:02:38;17.88;;;8.77;;
15990;SDS011;8100;50.994;4.538;2022-12-11T02:05:26;18.25;;;8.98;;
15990;SDS011;8100;50.994;4.538;2022-12-11T02:08:13;17.73;;;8.80;;
15990;SDS011;8100;50.994;4.538;2022-12-11T02:11:04;16.80;;;8.95;;
15990;SDS011;8100;50.994;4.538;2022-12-11T02:13:56;16.15;;;8.93;;
15990;SDS011;8100;50.994;4.538;2022-12-11T02:16:53;15.85;;;9.00;;
15990;SDS011;8100;50.994;4.538;2022-12-11T02:19:50;13.88;;;8.68;;
15990;SDS011;8100;50.994;4.538;2022-12-11T02:23:01;17.60;;;9.05;;
15990;SDS011;8100;50.994;4.538;2022-12-11T02:26:06;16.60;;;9.07;;
15990;SDS011;8100;50.994;4.538;2022-12-11T02:29:07;17.45;;;9.65;;
15990;SDS011;8100;50.994;4.538;2022-12-11T02:31:59;17.45;;;8.90;;
15990;SDS011;8100;50.994;4.538;2022-12-11T02:34:50;14.93;;;8.80;;
15990;SDS011;8100;50.994;4.538;2022-12-11T02:37:45;16.67;;;9.63;;
15990;SDS011;8100;50.994;4.538;2022-12-11T02:40:35;14.57;;;8.55;;
15990;SDS011;8100;50.994;4.538;2022-12-11T02:43:26;16.08;;;8.60;;
15990;SDS011;8100;50.994;4.538;2022-12-11T02:46:17;16.83;;;9.63;;
15990;SDS011;8100;50.994;4.538;2022-12-11T02:49:06;18.60;;;9.60;;
15990;SDS011;8100;50.994;4.538;2022-12-11T02:51:56;15.32;;;8.60;;
15990;SDS011;8100;50.994;4.538;2022-12-11T02:54:46;20.20;;;9.45;;
15990;SDS011;8100;50.994;4.538;2022-12-11T02:57:35;18.00;;;9.73;;
15990;SDS011;8100;50.994;4.538;2022-12-11T03:00:26;17.13;;;9.27;;
15990;SDS011;8100;50.994;4.538;2022-12-11T03:03:14;17.30;;;9.57;;
15990;SDS011;8100;50.994;4.538;2022-12-11T03:06:02;17.80;;;9.43;;
15990;SDS011;8100;50.994;4.538;2022-12-11T03:08:49;19.15;;;9.32;;
15990;SDS011;8100;50.994;4.538;2022-12-11T03:11:37;15.90;;;9.15;;
15990;SDS011;8100;50.994;4.538;2022-12-11T03:14:24;16.35;;;9.40;;
15990;SDS011;8100;50.994;4.538;2022-12-11T03:17:13;14.32;;;8.45;;
15990;SDS011;8100;50.994;4.538;2022-12-11T03:20:05;14.80;;;9.02;;
15990;SDS011;8100;50.994;4.538;2022-12-11T03:22:59;17.52;;;9.40;;
15990;SDS011;8100;50.994;4.538;2022-12-11T03:25:55;18.58;;;9.20;;
15990;SDS011;8100;50.994;4.538;2022-12-11T03:28:46;16.60;;;9.05;;
15990;SDS011;8100;50.994;4.538;2022-12-11T03:31:39;17.48;;;8.73;;
15990;SDS011;8100;50.994;4.538;2022-12-11T03:34:31;15.60;;;9.05;;
15990;SDS011;8100;50.994;4.538;2022-12-11T03:37:25;16.35;;;9.50;;
15990;SDS011;8100;50.994;4.538;2022-12-11T03:40:17;16.73;;;9.57;;
15990;SDS011;8100;50.994;4.538;2022-12-11T03:43:06;17.58;;;9.73;;
15990;SDS011;8100;50.994;4.538;2022-12-11T03:45:56;17.42;;;9.45;;
15990;SDS011;8100;50.994;4.538;2022-12-11T03:48:46;17.63;;;9.57;;
15990;SDS011;8100;50.994;4.538;2022-12-11T03:51:35;17.88;;;9.38;;
15990;SDS011;8100;50.994;4.538;2022-12-11T03:54:24;20.50;;;9.80;;
15990;SDS011;8100;50.994;4.538;2022-12-11T03:57:14;21.23;;;10.70;;
15990;SDS011;8100;50.994;4.538;2022-12-11T04:00:05;18.10;;;10.05;;
15990;SDS011;8100;50.994;4.538;2022-12-11T04:02:55;18.00;;;9.32;;
15990;SDS011;8100;50.994;4.538;2022-12-11T04:05:58;18.02;;;10.07;;
15990;SDS011;8100;50.994;4.538;2022-12-11T04:08:45;17.33;;;10.07;;
15990;SDS011;8100;50.994;4.538;2022-12-11T04:11:34;18.95;;;10.68;;
15990;SDS011;8100;50.994;4.538;2022-12-11T04:14:21;16.83;;;10.07;;
15990;SDS011;8100;50.994;4.538;2022-12-11T04:17:25;18.52;;;10.32;;
15990;SDS011;8100;50.994;4.538;2022-12-11T04:20:30;18.92;;;9.82;;
15990;SDS011;8100;50.994;4.538;2022-12-11T04:23:34;20.55;;;10.80;;
15990;SDS011;8100;50.994;4.538;2022-12-11T04:26:40;17.05;;;10.30;;
15990;SDS011;8100;50.994;4.538;2022-12-11T04:29:27;19.02;;;10.80;;
15990;SDS011;8100;50.994;4.538;2022-12-11T04:32:15;23.75;;;11.93;;
15990;SDS011;8100;50.994;4.538;2022-12-11T04:35:02;23.38;;;11.77;;
15990;SDS011;8100;50.994;4.538;2022-12-11T04:37:50;19.75;;;11.57;;
15990;SDS011;8100;50.994;4.538;2022-12-11T04:40:38;20.83;;;11.25;;
15990;SDS011;8100;50.994;4.538;2022-12-11T04:43:26;23.23;;;10.90;;
15990;SDS011;8100;50.994;4.538;2022-12-11T04:46:14;26.35;;;11.98;;
15990;SDS011;8100;50.994;4.538;2022-12-11T04:49:03;21.02;;;11.48;;
15990;SDS011;8100;50.994;4.538;2022-12-11T04:51:50;20.55;;;10.90;;
15990;SDS011;8100;50.994;4.538;2022-12-11T04:54:37;23.73;;;11.75;;
15990;SDS011;8100;50.994;4.538;2022-12-11T04:57:25;21.05;;;10.50;;
15990;SDS011;8100;50.994;4.538;2022-12-11T05:00:14;23.23;;;12.05;;
15990;SDS011;8100;50.994;4.538;2022-12-11T05:03:02;24.13;;;12.07;;
15990;SDS011;8100;50.994;4.538;2022-12-11T05:05:49;26.05;;;12.20;;
15990;SDS011;8100;50.994;4.538;2022-12-11T05:08:39;23.95;;;11.80;;
15990;SDS011;8100;50.994;4.538;2022-12-11T05:11:27;23.65;;;11.88;;
15990;SDS011;8100;50.994;4.538;2022-12-11T05:14:14;25.50;;;11.93;;
15990;SDS011;8100;50.994;4.538;2022-12-11T05:17:03;25.10;;;12.65;;
15990;SDS011;8100;50.994;4.538;2022-12-11T05:19:50;24.42;;;11.95;;
15990;SDS011;8100;50.994;4.538;2022-12-11T05:22:38;23.67;;;12.60;;
15990;SDS011;8100;50.994;4.538;2022-12-11T05:25:25;23.80;;;12.07;;
15990;SDS011;8100;50.994;4.538;2022-12-11T05:28:12;24.95;;;12.45;;
15990;SDS011;8100;50.994;4.538;2022-12-11T05:31:00;24.50;;;12.68;;
15990;SDS011;8100;50.994;4.538;2022-12-11T05:33:50;25.50;;;12.65;;
15990;SDS011;8100;50.994;4.538;2022-12-11T05:36:39;24.73;;;12.73;;
15990;SDS011;8100;50.994;4.538;2022-12-11T05:39:26;20.60;;;11.98;;
15990;SDS011;8100;50.994;4.538;2022-12-11T05:42:13;25.58;;;12.02;;
15990;SDS011;8100;50.994;4.538;2022-12-11T05:45:00;24.83;;;12.05;;
15990;SDS011;8100;50.994;4.538;2022-12-11T05:47:47;25.25;;;12.20;;
15990;SDS011;8100;50.994;4.538;2022-12-11T05:50:36;24.48;;;12.30;;
15990;SDS011;8100;50.994;4.538;2022-12-11T05:53:23;24.73;;;11.60;;
15990;SDS011;8100;50.994;4.538;2022-12-11T05:56:12;23.88;;;11.82;;
15990;SDS011;8100;50.994;4.538;2022-12-11T05:59:02;23.42;;;11.85;;
15990;SDS011;8100;50.994;4.538;2022-12-11T06:01:50;23.00;;;11.07;;
15990;SDS011;8100;50.994;4.538;2022-12-11T06:04:38;27.10;;;12.70;;
15990;SDS011;8100;50.994;4.538;2022-12-11T06:07:26;23.98;;;11.68;;
15990;SDS011;8100;50.994;4.538;2022-12-11T06:10:13;24.95;;;12.10;;
15990;SDS011;8100;50.994;4.538;2022-12-11T06:13:01;23.65;;;12.38;;
15990;SDS011;8100;50.994;4.538;2022-12-11T06:15:48;24.40;;;11.98;;
15990;SDS011;8100;50.994;4.538;2022-12-11T06:18:36;21.88;;;11.68;;
15990;SDS011;8100;50.994;4.538;2022-12-11T06:21:24;23.35;;;11.85;;
15990;SDS011;8100;50.994;4.538;2022-12-11T06:24:13;25.33;;;12.73;;
15990;SDS011;8100;50.994;4.538;2022-12-11T06:27:00;25.23;;;12.00;;
15990;SDS011;8100;50.994;4.538;2022-12-11T06:29:48;26.70;;;12.85;;
15990;SDS011;8100;50.994;4.538;2022-12-11T06:32:35;23.75;;;11.45;;
15990;SDS011;8100;50.994;4.538;2022-12-11T06:35:22;21.10;;;10.95;;
15990;SDS011;8100;50.994;4.538;2022-12-11T06:38:09;23.63;;;11.93;;
15990;SDS011;8100;50.994;4.538;2022-12-11T06:40:58;26.50;;;12.68;;
15990;SDS011;8100;50.994;4.538;2022-12-11T06:43:49;23.35;;;12.07;;
15990;SDS011;8100;50.994;4.538;2022-12-11T06:46:36;24.40;;;12.35;;
15990;SDS011;8100;50.994;4.538;2022-12-11T06:49:23;26.10;;;12.30;;
15990;SDS011;8100;50.994;4.538;2022-12-11T06:52:10;26.60;;;12.52;;
15990;SDS011;8100;50.994;4.538;2022-12-11T06:54:57;22.67;;;12.15;;
15990;SDS011;8100;50.994;4.538;2022-12-11T06:57:46;25.35;;;12.50;;
15990;SDS011;8100;50.994;4.538;2022-12-11T07:00:34;26.95;;;13.38;;
15990;SDS011;8100;50.994;4.538;2022-12-11T07:03:21;25.27;;;12.25;;
15990;SDS011;8100;50.994;4.538;2022-12-11T07:06:08;24.80;;;12.52;;
15990;SDS011;8100;50.994;4.538;2022-12-11T07:08:56;27.50;;;14.43;;
15990;SDS011;8100;50.994;4.538;2022-12-11T07:11:43;48.15;;;22.10;;
15990;SDS011;8100;50.994;4.538;2022-12-11T07:14:32;38.38;;;18.70;;
15990;SDS011;8100;50.994;4.538;2022-12-11T07:17:19;28.02;;;14.98;;
15990;SDS011;8100;50.994;4.538;2022-12-11T07:20:07;24.45;;;12.95;;
15990;SDS011;8100;50.994;4.538;2022-12-11T07:22:55;27.35;;;14.40;;
15990;SDS011;8100;50.994;4.538;2022-12-11T07:25:42;26.88;;;15.23;;
15990;SDS011;8100;50.994;4.538;2022-12-11T07:28:29;28.90;;;14.35;;
15990;SDS011;8100;50.994;4.538;2022-12-11T07:31:18;25.70;;;13.75;;
15990;SDS011;8100;50.994;4.538;2022-12-11T07:34:10;24.73;;;13.13;;
15990;SDS011;8100;50.994;4.538;2022-12-11T07:36:57;24.27;;;12.95;;
15990;SDS011;8100;50.994;4.538;2022-12-11T07:39:45;24.55;;;12.57;;
15990;SDS011;8100;50.994;4.538;2022-12-11T07:42:33;25.02;;;13.70;;
15990;SDS011;8100;50.994;4.538;2022-12-11T07:45:20;25.40;;;13.18;;
15990;SDS011;8100;50.994;4.538;2022-12-11T07:48:09;24.70;;;12.40;;
15990;SDS011;8100;50.994;4.538;2022-12-11T07:51:06;23.52;;;12.40;;
15990;SDS011;8100;50.994;4.538;2022-12-11T07:53:56;22.38;;;12.20;;
15990;SDS011;8100;50.994;4.538;2022-12-11T07:56:44;24.42;;;12.55;;
15990;SDS011;8100;50.994;4.538;2022-12-11T07:59:32;25.52;;;13.38;;
15990;SDS011;8100;50.994;4.538;2022-12-11T08:02:19;24.95;;;13.00;;
15990;SDS011;8100;50.994;4.538;2022-12-11T08:05:09;23.75;;;12.52;;
15990;SDS011;8100;50.994;4.538;2022-12-11T08:07:57;22.23;;;12.35;;
15990;SDS011;8100;50.994;4.538;2022-12-11T08:10:44;22.90;;;12.45;;
15990;SDS011;8100;50.994;4.538;2022-12-11T08:13:31;22.98;;;12.15;;
15990;SDS011;8100;50.994;4.538;2022-12-11T08:16:19;22.67;;;12.63;;
15990;SDS011;8100;50.994;4.538;2022-12-11T08:19:06;24.83;;;12.25;;
15990;SDS011;8100;50.994;4.538;2022-12-11T08:21:55;23.23;;;11.98;;
15990;SDS011;8100;50.994;4.538;2022-12-11T08:24:42;24.38;;;12.52;;
15990;SDS011;8100;50.994;4.538;2022-12-11T08:27:29;21.70;;;11.60;;
15990;SDS011;8100;50.994;4.538;2022-12-11T08:30:17;21.58;;;11.90;;
15990;SDS011;8100;50.994;4.538;2022-12-11T08:33:04;19.80;;;11.32;;
15990;SDS011;8100;50.994;4.538;2022-12-11T08:35:51;22.38;;;12.00;;
15990;SDS011;8100;50.994;4.538;2022-12-11T08:38:40;21.05;;;11.85;;
15990;SDS011;8100;50.994;4.538;2022-12-11T08:41:28;22.38;;;11.13;;
15990;SDS011;8100;50.994;4.538;2022-12-11T08:44:16;22.02;;;11.80;;
15990;SDS011;8100;50.994;4.538;2022-12-11T08:47:04;20.27;;;11.82;;
15990;SDS011;8100;50.994;4.538;2022-12-11T08:49:51;24.45;;;12.77;;
15990;SDS011;8100;50.994;4.538;2022-12-11T08:52:38;23.42;;;12.30;;
15990;SDS011;8100;50.994;4.538;2022-12-11T08:55:27;23.60;;;11.82;;
15990;SDS011;8100;50.994;4.538;2022-12-11T08:58:14;23.52;;;11.90;;
15990;SDS011;8100;50.994;4.538;2022-12-11T09:01:04;27.50;;;12.95;;
15990;SDS011;8100;50.994;4.538;2022-12-11T09:03:52;24.23;;;13.00;;
15990;SDS011;8100;50.994;4.538;2022-12-11T09:06:40;25.23;;;12.68;;
15990;SDS011;8100;50.994;4.538;2022-12-11T09:09:28;22.00;;;11.70;;
15990;SDS011;8100;50.994;4.538;2022-12-11T09:12:20;22.73;;;11.50;;
15990;SDS011;8100;50.994;4.538;2022-12-11T09:15:08;22.13;;;11.65;;
15990;SDS011;8100;50.994;4.538;2022-12-11T09:17:56;22.10;;;11.48;;
15990;SDS011;8100;50.994;4.538;2022-12-11T09:20:43;20.20;;;10.90;;
15990;SDS011;8100;50.994;4.538;2022-12-11T09:23:30;25.10;;;12.32;;
15990;SDS011;8100;50.994;4.538;2022-12-11T09:26:18;21.33;;;11.43;;
15990;SDS011;8100;50.994;4.538;2022-12-11T09:29:06;23.13;;;11.60;;
15990;SDS011;8100;50.994;4.538;2022-12-11T09:31:54;24.52;;;12.15;;
15990;SDS011;8100;50.994;4.538;2022-12-11T09:34:41;25.25;;;11.45;;
15990;SDS011;8100;50.994;4.538;2022-12-11T09:37:29;20.55;;;10.95;;
15990;SDS011;8100;50.994;4.538;2022-12-11T09:40:16;22.20;;;11.43;;
15990;SDS011;8100;50.994;4.538;2022-12-11T09:43:05;19.58;;;10.88;;
15990;SDS011;8100;50.994;4.538;2022-12-11T09:46:02;21.65;;;11.77;;
15990;SDS011;8100;50.994;4.538;2022-12-11T09:48:52;23.10;;;12.07;;
15990;SDS011;8100;50.994;4.538;2022-12-11T09:51:40;22.35;;;11.20;;
15990;SDS011;8100;50.994;4.538;2022-12-11T09:54:32;22.02;;;11.82;;
15990;SDS011;8100;50.994;4.538;2022-12-11T09:57:28;21.70;;;11.88;;
15990;SDS011;8100;50.994;4.538;2022-12-11T10:00:25;25.30;;;11.25;;
15990;SDS011;8100;50.994;4.538;2022-12-11T10:06:49;25.05;;;12.02;;
15990;SDS011;8100;50.994;4.538;2022-12-11T10:09:47;22.00;;;11.73;;
15990;SDS011;8100;50.994;4.538;2022-12-11T10:12:40;21.48;;;9.95;;
15990;SDS011;8100;50.994;4.538;2022-12-11T10:15:34;20.70;;;11.35;;
15990;SDS011;8100;50.994;4.538;2022-12-11T10:18:25;19.67;;;10.48;;
15990;SDS011;8100;50.994;4.538;2022-12-11T10:21:15;20.73;;;11.25;;
15990;SDS011;8100;50.994;4.538;2022-12-11T10:24:08;21.17;;;11.18;;
15990;SDS011;8100;50.994;4.538;2022-12-11T10:27:01;24.65;;;11.75;;
15990;SDS011;8100;50.994;4.538;2022-12-11T10:30:00;23.20;;;12.13;;
15990;SDS011;8100;50.994;4.538;2022-12-11T10:32:56;22.48;;;11.88;;
15990;SDS011;8100;50.994;4.538;2022-12-11T10:35:51;23.67;;;11.57;;
15990;SDS011;8100;50.994;4.538;2022-12-11T10:38:41;20.90;;;11.30;;
15990;SDS011;8100;50.994;4.538;2022-12-11T10:41:36;24.27;;;11.38;;
15990;SDS011;8100;50.994;4.538;2022-12-11T10:44:25;22.20;;;11.40;;
15990;SDS011;8100;50.994;4.538;2022-12-11T10:47:14;19.88;;;10.68;;
15990;SDS011;8100;50.994;4.538;2022-12-11T10:50:04;18.60;;;10.07;;
15990;SDS011;8100;50.994;4.538;2022-12-11T10:52:52;19.23;;;10.05;;
15990;SDS011;8100;50.994;4.538;2022-12-11T10:55:42;20.05;;;10.50;;
15990;SDS011;8100;50.994;4.538;2022-12-11T10:58:32;21.88;;;11.68;;
15990;SDS011;8100;50.994;4.538;2022-12-11T11:01:24;23.67;;;11.50;;
15990;SDS011;8100;50.994;4.538;2022-12-11T11:04:14;21.85;;;10.80;;
15990;SDS011;8100;50.994;4.538;2022-12-11T11:07:10;20.30;;;10.23;;
15990;SDS011;8100;50.994;4.538;2022-12-11T11:10:04;20.48;;;10.48;;
15990;SDS011;8100;50.994;4.538;2022-12-11T11:13:00;20.52;;;10.82;;
15990;SDS011;8100;50.994;4.538;2022-12-11T11:15:49;22.15;;;10.57;;
15990;SDS011;8100;50.994;4.538;2022-12-11T11:18:48;20.48;;;10.55;;
15990;SDS011;8100;50.994;4.538;2022-12-11T11:21:45;20.60;;;10.75;;
15990;SDS011;8100;50.994;4.538;2022-12-11T11:24:37;19.10;;;9.82;;
15990;SDS011;8100;50.994;4.538;2022-12-11T11:27:28;21.55;;;10.13;;
15990;SDS011;8100;50.994;4.538;2022-12-11T11:30:20;21.80;;;11.32;;
15990;SDS011;8100;50.994;4.538;2022-12-11T11:33:11;20.33;;;10.30;;
15990;SDS011;8100;50.994;4.538;2022-12-11T11:36:01;22.55;;;10.80;;
15990;SDS011;8100;50.994;4.538;2022-12-11T11:38:58;21.00;;;10.23;;
15990;SDS011;8100;50.994;4.538;2022-12-11T11:41:59;24.45;;;11.38;;
15990;SDS011;8100;50.994;4.538;2022-12-11T11:44:55;20.48;;;10.00;;
15990;SDS011;8100;50.994;4.538;2022-12-11T11:47:50;20.65;;;10.63;;
15990;SDS011;8100;50.994;4.538;2022-12-11T11:50:45;21.42;;;10.45;;
15990;SDS011;8100;50.994;4.538;2022-12-11T11:53:37;24.15;;;11.35;;
15990;SDS011;8100;50.994;4.538;2022-12-11T11:56:26;25.55;;;10.45;;
15990;SDS011;8100;50.994;4.538;2022-12-11T11:59:20;22.95;;;11.23;;
15990;SDS011;8100;50.994;4.538;2022-12-11T12:02:12;24.77;;;11.50;;
15990;SDS011;8100;50.994;4.538;2022-12-11T12:05:01;21.90;;;10.70;;
15990;SDS011;8100;50.994;4.538;2022-12-11T12:07:52;22.48;;;10.65;;
15990;SDS011;8100;50.994;4.538;2022-12-11T12:10:51;21.38;;;10.73;;
15990;SDS011;8100;50.994;4.538;2022-12-11T12:13:45;20.25;;;10.68;;
15990;SDS011;8100;50.994;4.538;2022-12-11T12:16:38;21.90;;;10.73;;
15990;SDS011;8100;50.994;4.538;2022-12-11T12:19:34;18.48;;;9.70;;
15990;SDS011;8100;50.994;4.538;2022-12-11T12:22:32;20.13;;;10.45;;
15990;SDS011;8100;50.994;4.538;2022-12-11T12:25:27;20.30;;;9.85;;
15990;SDS011;8100;50.994;4.538;2022-12-11T12:28:21;22.35;;;10.13;;
15990;SDS011;8100;50.994;4.538;2022-12-11T12:31:22;22.13;;;11.20;;
15990;SDS011;8100;50.994;4.538;2022-12-11T12:34:30;22.00;;;10.80;;
15990;SDS011;8100;50.994;4.538;2022-12-11T12:37:25;21.25;;;10.13;;
15990;SDS011;8100;50.994;4.538;2022-12-11T12:40:19;21.55;;;10.38;;
15990;SDS011;8100;50.994;4.538;2022-12-11T12:43:22;24.30;;;10.57;;
15990;SDS011;8100;50.994;4.538;2022-12-11T12:46:26;23.15;;;10.32;;
15990;SDS011;8100;50.994;4.538;2022-12-11T12:49:26;22.60;;;9.95;;
15990;SDS011;8100;50.994;4.538;2022-12-11T12:52:19;21.98;;;10.10;;
15990;SDS011;8100;50.994;4.538;2022-12-11T12:55:17;21.60;;;10.20;;
15990;SDS011;8100;50.994;4.538;2022-12-11T12:58:23;21.38;;;9.82;;
15990;SDS011;8100;50.994;4.538;2022-12-11T13:01:14;21.42;;;9.35;;
15990;SDS011;8100;50.994;4.538;2022-12-11T13:04:04;19.58;;;9.48;;
15990;SDS011;8100;50.994;4.538;2022-12-11T13:06:52;21.52;;;9.38;;
15990;SDS011;8100;50.994;4.538;2022-12-11T13:09:41;19.08;;;9.60;;
15990;SDS011;8100;50.994;4.538;2022-12-11T13:12:30;22.95;;;10.38;;
15990;SDS011;8100;50.994;4.538;2022-12-11T13:18:29;22.15;;;10.23;;
15990;SDS011;8100;50.994;4.538;2022-12-11T13:21:26;19.13;;;9.95;;
15990;SDS011;8100;50.994;4.538;2022-12-11T13:24:23;24.02;;;10.80;;
15990;SDS011;8100;50.994;4.538;2022-12-11T13:27:21;23.15;;;10.10;;
15990;SDS011;8100;50.994;4.538;2022-12-11T13:30:19;18.63;;;9.18;;
15990;SDS011;8100;50.994;4.538;2022-12-11T13:33:14;19.55;;;9.75;;
15990;SDS011;8100;50.994;4.538;2022-12-11T13:36:19;20.83;;;9.95;;
15990;SDS011;8100;50.994;4.538;2022-12-11T13:39:15;20.42;;;9.63;;
15990;SDS011;8100;50.994;4.538;2022-12-11T13:42:04;23.83;;;10.77;;
15990;SDS011;8100;50.994;4.538;2022-12-11T13:44:52;25.10;;;10.68;;
15990;SDS011;8100;50.994;4.538;2022-12-11T13:47:40;20.75;;;10.32;;
15990;SDS011;8100;50.994;4.538;2022-12-11T13:50:30;19.15;;;10.07;;
15990;SDS011;8100;50.994;4.538;2022-12-11T13:53:19;21.77;;;10.30;;
15990;SDS011;8100;50.994;4.538;2022-12-11T13:56:06;21.50;;;10.60;;
15990;SDS011;8100;50.994;4.538;2022-12-11T13:59:03;18.15;;;9.45;;
15990;SDS011;8100;50.994;4.538;2022-12-11T14:01:50;21.25;;;10.02;;
15990;SDS011;8100;50.994;4.538;2022-12-11T14:04:41;18.85;;;9.45;;
15990;SDS011;8100;50.994;4.538;2022-12-11T14:07:31;20.13;;;9.82;;
15990;SDS011;8100;50.994;4.538;2022-12-11T14:10:21;20.58;;;10.35;;
15990;SDS011;8100;50.994;4.538;2022-12-11T14:13:13;20.38;;;10.00;;
15990;SDS011;8100;50.994;4.538;2022-12-11T14:16:06;23.00;;;10.27;;
15990;SDS011;8100;50.994;4.538;2022-12-11T14:19:02;23.15;;;10.70;;
15990;SDS011;8100;50.994;4.538;2022-12-11T14:21:55;21.75;;;10.93;;
15990;SDS011;8100;50.994;4.538;2022-12-11T14:24:48;22.90;;;11.23;;
15990;SDS011;8100;50.994;4.538;2022-12-11T14:27:45;22.75;;;11.00;;
15990;SDS011;8100;50.994;4.538;2022-12-11T14:30:33;22.92;;;11.30;;
15990;SDS011;8100;50.994;4.538;2022-12-11T14:33:24;22.08;;;11.23;;
15990;SDS011;8100;50.994;4.538;2022-12-11T14:36:15;23.80;;;10.52;;
15990;SDS011;8100;50.994;4.538;2022-12-11T14:39:03;22.70;;;10.55;;
15990;SDS011;8100;50.994;4.538;2022-12-11T14:41:58;23.00;;;10.93;;
15990;SDS011;8100;50.994;4.538;2022-12-11T14:44:50;24.70;;;12.23;;
15990;SDS011;8100;50.994;4.538;2022-12-11T14:47:42;26.55;;;13.05;;
15990;SDS011;8100;50.994;4.538;2022-12-11T14:50:31;25.92;;;11.38;;
15990;SDS011;8100;50.994;4.538;2022-12-11T14:53:24;21.88;;;10.77;;
15990;SDS011;8100;50.994;4.538;2022-12-11T14:56:16;20.98;;;10.18;;
15990;SDS011;8100;50.994;4.538;2022-12-11T14:59:06;21.00;;;10.75;;
15990;SDS011;8100;50.994;4.538;2022-12-11T15:02:18;24.08;;;11.18;;
15990;SDS011;8100;50.994;4.538;2022-12-11T15:05:13;23.65;;;10.82;;
15990;SDS011;8100;50.994;4.538;2022-12-11T15:08:14;22.88;;;11.45;;
15990;SDS011;8100;50.994;4.538;2022-12-11T15:11:09;25.13;;;11.45;;
15990;SDS011;8100;50.994;4.538;2022-12-11T15:13:58;28.52;;;12.98;;
15990;SDS011;8100;50.994;4.538;2022-12-11T15:16:49;25.13;;;11.70;;
15990;SDS011;8100;50.994;4.538;2022-12-11T15:19:38;25.10;;;12.65;;
15990;SDS011;8100;50.994;4.538;2022-12-11T15:22:26;24.55;;;11.57;;
15990;SDS011;8100;50.994;4.538;2022-12-11T15:25:18;24.63;;;11.40;;
15990;SDS011;8100;50.994;4.538;2022-12-11T15:28:21;22.15;;;10.75;;
15990;SDS011;8100;50.994;4.538;2022-12-11T15:31:23;24.10;;;10.90;;
15990;SDS011;8100;50.994;4.538;2022-12-11T15:34:21;24.45;;;11.63;;
15990;SDS011;8100;50.994;4.538;2022-12-11T15:37:15;25.38;;;11.88;;
15990;SDS011;8100;50.994;4.538;2022-12-11T15:40:04;24.15;;;12.23;;
15990;SDS011;8100;50.994;4.538;2022-12-11T15:42:52;25.02;;;12.05;;
15990;SDS011;8100;50.994;4.538;2022-12-11T15:45:40;25.80;;;12.07;;
15990;SDS011;8100;50.994;4.538;2022-12-11T15:48:27;21.90;;;11.80;;
15990;SDS011;8100;50.994;4.538;2022-12-11T15:51:16;24.95;;;11.88;;
15990;SDS011;8100;50.994;4.538;2022-12-11T15:54:03;24.30;;;12.05;;
15990;SDS011;8100;50.994;4.538;2022-12-11T15:56:51;25.35;;;11.57;;
15990;SDS011;8100;50.994;4.538;2022-12-11T15:59:38;24.00;;;11.82;;
15990;SDS011;8100;50.994;4.538;2022-12-11T16:02:25;22.80;;;11.40;;
15990;SDS011;8100;50.994;4.538;2022-12-11T16:05:13;23.48;;;11.88;;
15990;SDS011;8100;50.994;4.538;2022-12-11T16:08:02;27.85;;;13.32;;
15990;SDS011;8100;50.994;4.538;2022-12-11T16:10:50;25.92;;;13.02;;
15990;SDS011;8100;50.994;4.538;2022-12-11T16:13:38;24.27;;;12.50;;
15990;SDS011;8100;50.994;4.538;2022-12-11T16:16:25;24.20;;;12.38;;
15990;SDS011;8100;50.994;4.538;2022-12-11T16:19:12;24.58;;;12.23;;
15990;SDS011;8100;50.994;4.538;2022-12-11T16:22:00;23.27;;;11.93;;
15990;SDS011;8100;50.994;4.538;2022-12-11T16:24:51;23.45;;;12.48;;
15990;SDS011;8100;50.994;4.538;2022-12-11T16:27:39;24.85;;;12.52;;
15990;SDS011;8100;50.994;4.538;2022-12-11T16:30:26;25.52;;;12.48;;
15990;SDS011;8100;50.994;4.538;2022-12-11T16:33:14;24.65;;;12.50;;
15990;SDS011;8100;50.994;4.538;2022-12-11T16:36:01;26.48;;;13.48;;
15990;SDS011;8100;50.994;4.538;2022-12-11T16:38:48;29.90;;;14.32;;
15990;SDS011;8100;50.994;4.538;2022-12-11T16:41:37;27.02;;;13.93;;
15990;SDS011;8100;50.994;4.538;2022-12-11T16:44:25;29.70;;;14.57;;
15990;SDS011;8100;50.994;4.538;2022-12-11T16:47:12;33.15;;;17.13;;
15990;SDS011;8100;50.994;4.538;2022-12-11T16:50:00;30.60;;;15.82;;
15990;SDS011;8100;50.994;4.538;2022-12-11T16:52:48;32.33;;;16.55;;
15990;SDS011;8100;50.994;4.538;2022-12-11T16:55:37;28.40;;;15.05;;
15990;SDS011;8100;50.994;4.538;2022-12-11T16:58:26;29.83;;;15.25;;
15990;SDS011;8100;50.994;4.538;2022-12-11T17:01:14;29.45;;;14.82;;
15990;SDS011;8100;50.994;4.538;2022-12-11T17:04:01;29.70;;;15.15;;